createdAt,value
2018-05-01T00:01:06.546Z,1.17
2018-05-01T00:06:06.870Z,1.43
2018-05-01T00:08:34.383Z,1.40
2018-05-01T00:11:02.649Z,1.37
2018-05-01T00:13:30.241Z,1.53
2018-05-01T00:15:58.652Z,2.07
2018-05-01T00:18:26.195Z,1.50
2018-05-01T00:20:53.749Z,2.20
2018-05-01T00:23:21.260Z,1.93
2018-05-01T00:25:48.824Z,1.83
2018-05-01T00:28:16.349Z,1.57
2018-05-01T00:30:43.854Z,1.63
2018-05-01T00:33:11.359Z,1.87
2018-05-01T00:35:38.881Z,2.00
2018-05-01T00:38:07.163Z,1.20
2018-05-01T00:40:35.426Z,1.47
2018-05-01T00:43:02.949Z,1.50
2018-05-01T00:45:30.441Z,1.67
2018-05-01T00:47:57.961Z,1.40
2018-05-01T00:50:25.507Z,1.40
2018-05-01T00:52:53.013Z,1.43
2018-05-01T00:55:20.515Z,1.30
2018-05-01T00:57:48.910Z,2.17
2018-05-01T01:00:16.426Z,1.93
2018-05-01T01:02:43.935Z,2.20
2018-05-01T01:05:11.519Z,2.17
2018-05-01T01:07:39.026Z,1.63
2018-05-01T01:10:07.301Z,2.10
2018-05-01T01:12:35.764Z,1.73
2018-05-01T01:15:03.314Z,3.33
2018-05-01T01:17:30.826Z,1.40
2018-05-01T01:19:58.345Z,2.83
2018-05-01T01:22:25.910Z,1.13
2018-05-01T01:24:53.419Z,2.20
2018-05-01T01:27:20.945Z,1.60
2018-05-01T01:29:48.474Z,2.27
2018-05-01T01:32:16.002Z,1.37
2018-05-01T01:34:43.563Z,1.40
2018-05-01T01:37:10.582Z,1.47
2018-05-01T01:39:38.346Z,1.30
2018-05-01T01:42:06.168Z,2.00
2018-05-01T01:44:33.195Z,2.90
2018-05-01T01:47:00.243Z,2.17
2018-05-01T01:49:27.278Z,0.93
2018-05-01T01:51:54.303Z,1.33
2018-05-01T01:54:21.320Z,1.30
2018-05-01T01:56:48.367Z,1.93
2018-05-01T01:59:15.385Z,1.63
2018-05-01T02:01:42.398Z,1.80
2018-05-01T02:04:10.231Z,2.53
2018-05-01T02:06:37.404Z,2.07
2018-05-01T02:09:04.551Z,1.73
2018-05-01T02:11:31.584Z,1.37
2018-05-01T02:13:58.772Z,1.67
2018-05-01T02:16:25.891Z,1.27
2018-05-01T02:18:52.978Z,1.87
2018-05-01T02:21:21.150Z,1.60
2018-05-01T02:23:48.955Z,1.63
2018-05-01T02:26:15.971Z,1.40
2018-05-01T02:28:42.983Z,2.33
2018-05-01T02:31:10.074Z,1.50
2018-05-01T02:33:37.108Z,1.20
2018-05-01T02:36:04.125Z,1.20
2018-05-01T02:38:31.239Z,2.00
2018-05-01T02:40:58.278Z,1.40
2018-05-01T02:43:25.294Z,1.53
2018-05-01T02:45:52.358Z,1.83
2018-05-01T02:48:20.134Z,2.83
2018-05-01T02:50:47.159Z,1.40
2018-05-01T02:53:14.189Z,1.90
2018-05-01T02:55:41.209Z,2.03
2018-05-01T02:58:08.222Z,4.47
2018-05-01T03:00:35.238Z,3.63
2018-05-01T03:03:02.280Z,2.07
2018-05-01T03:05:29.329Z,2.13
2018-05-01T03:07:56.363Z,3.10
2018-05-01T03:10:23.884Z,1.70
2018-05-01T03:12:50.917Z,3.17
2018-05-01T03:15:18.051Z,1.87
2018-05-01T03:17:45.059Z,3.00
2018-05-01T03:20:12.065Z,3.13
2018-05-01T03:22:39.889Z,4.50
2018-05-01T03:25:06.908Z,2.63
2018-05-01T03:27:33.908Z,3.53
2018-05-01T03:30:00.966Z,4.37
2018-05-01T03:32:27.973Z,5.33
2018-05-01T03:34:54.997Z,6.30
2018-05-01T03:37:22.026Z,4.17
2018-05-01T03:39:49.055Z,3.90
2018-05-01T03:42:16.076Z,7.07
2018-05-01T03:44:43.109Z,6.60
2018-05-01T03:47:10.116Z,5.90
2018-05-01T03:49:37.151Z,4.33
2018-05-01T03:52:04.183Z,8.60
2018-05-01T03:54:31.204Z,5.47
2018-05-01T03:56:58.263Z,7.60
2018-05-01T03:59:25.302Z,10.43
2018-05-01T04:01:52.315Z,8.17
2018-05-01T04:04:19.365Z,9.80
2018-05-01T04:06:47.154Z,6.47
2018-05-01T04:09:14.930Z,10.60
2018-05-01T04:11:41.984Z,12.00
2018-05-01T04:14:08.990Z,6.80
2018-05-01T04:16:36.785Z,8.97
2018-05-01T04:19:03.833Z,9.47
2018-05-01T04:21:31.634Z,5.43
2018-05-01T04:23:58.647Z,9.77
2018-05-01T04:26:25.687Z,10.23
2018-05-01T04:28:52.699Z,8.77
2018-05-01T04:31:19.710Z,7.03
2018-05-01T04:33:46.799Z,11.03
2018-05-01T04:36:13.827Z,7.17
2018-05-01T04:38:40.887Z,9.10
2018-05-01T04:41:08.062Z,10.93
2018-05-01T04:43:35.086Z,9.73
2018-05-01T04:46:02.135Z,8.67
2018-05-01T04:48:29.167Z,9.07
2018-05-01T04:50:56.191Z,9.40
2018-05-01T04:53:23.218Z,8.77
2018-05-01T04:55:50.250Z,8.20
2018-05-01T04:58:17.262Z,9.27
2018-05-01T05:00:44.295Z,10.33
2018-05-01T05:03:11.330Z,6.93
2018-05-01T05:05:38.343Z,13.00
2018-05-01T05:08:05.378Z,8.97
2018-05-01T05:10:32.456Z,6.60
2018-05-01T05:12:59.558Z,7.90
2018-05-01T05:15:26.666Z,7.80
2018-05-01T05:17:53.698Z,8.87
2018-05-01T05:20:21.479Z,11.20
2018-05-01T05:22:48.490Z,11.73
2018-05-01T05:25:15.538Z,10.97
2018-05-01T05:27:42.556Z,10.40
2018-05-01T05:30:09.565Z,6.97
2018-05-01T05:32:36.624Z,8.30
2018-05-01T05:35:03.657Z,13.20
2018-05-01T05:37:31.452Z,10.77
2018-05-01T05:39:58.499Z,9.13
2018-05-01T05:42:25.517Z,7.40
2018-05-01T05:44:53.286Z,9.93
2018-05-01T05:47:21.091Z,8.93
2018-05-01T05:49:48.097Z,8.23
2018-05-01T05:52:15.942Z,11.43
2018-05-01T05:54:42.969Z,9.67
2018-05-01T05:57:09.966Z,9.07
2018-05-01T05:59:37.010Z,9.13
2018-05-01T06:02:04.115Z,12.43
2018-05-01T06:04:31.128Z,8.70
2018-05-01T06:06:58.187Z,7.37
2018-05-01T06:09:25.237Z,8.00
2018-05-01T06:11:52.251Z,6.73
2018-05-01T06:14:20.081Z,6.77
2018-05-01T06:16:47.114Z,11.73
2018-05-01T06:19:14.547Z,11.93
2018-05-01T06:21:42.281Z,8.35
2018-05-01T06:24:09.309Z,8.50
2018-05-01T06:26:36.321Z,6.83
2018-05-01T06:29:03.372Z,6.77
2018-05-01T06:31:30.385Z,7.93
2018-05-01T06:33:57.410Z,9.90
2018-05-01T06:36:24.473Z,9.93
2018-05-01T06:38:51.518Z,8.27
2018-05-01T06:41:18.545Z,9.30
2018-05-01T06:43:45.611Z,10.03
2018-05-01T06:46:12.650Z,8.17
2018-05-01T06:48:39.646Z,9.93
2018-05-01T06:51:06.690Z,9.17
2018-05-01T06:53:33.722Z,6.60
2018-05-01T06:56:01.496Z,11.07
2018-05-01T06:58:29.307Z,12.43
2018-05-01T07:00:56.334Z,10.23
2018-05-01T07:03:23.351Z,8.77
2018-05-01T07:05:51.166Z,10.30
2018-05-01T07:08:18.213Z,8.47
2018-05-01T07:10:45.212Z,9.13
2018-05-01T07:13:12.242Z,8.73
2018-05-01T07:15:39.266Z,7.33
2018-05-01T07:18:06.300Z,10.43
2018-05-01T07:20:33.330Z,7.73
2018-05-01T07:23:01.123Z,8.33
2018-05-01T07:25:28.208Z,11.20
2018-05-01T07:27:55.242Z,5.97
2018-05-01T07:30:22.282Z,10.43
2018-05-01T07:32:49.330Z,8.03
2018-05-01T07:35:16.354Z,11.43
2018-05-01T07:37:43.381Z,7.50
2018-05-01T07:40:11.196Z,9.83
2018-05-01T07:42:38.271Z,8.63
2018-05-01T07:45:05.278Z,9.77
2018-05-01T07:47:32.329Z,11.50
2018-05-01T07:49:59.347Z,8.43
2018-05-01T07:52:26.410Z,7.17
2018-05-01T07:54:53.438Z,13.07
2018-05-01T07:57:21.236Z,6.17
2018-05-01T07:59:48.281Z,9.47
2018-05-01T08:02:15.282Z,9.77
2018-05-01T08:04:42.305Z,6.53
2018-05-01T08:07:09.353Z,8.83
2018-05-01T08:09:36.427Z,8.23
2018-05-01T08:12:03.539Z,8.70
2018-05-01T08:14:30.513Z,9.80
2018-05-01T08:16:57.539Z,12.43
2018-05-01T08:19:24.553Z,9.97
2018-05-01T08:21:51.627Z,12.97
2018-05-01T08:24:18.641Z,7.97
2018-05-01T08:26:45.684Z,11.90
2018-05-01T08:29:12.728Z,11.77
2018-05-01T08:31:39.763Z,11.20
2018-05-01T08:34:06.775Z,11.03
2018-05-01T08:36:33.840Z,11.23
2018-05-01T08:39:00.845Z,11.37
2018-05-01T08:41:28.009Z,11.77
2018-05-01T08:43:55.067Z,10.57
2018-05-01T08:46:22.105Z,7.27
2018-05-01T08:48:49.886Z,7.87
2018-05-01T08:51:16.938Z,13.87
2018-05-01T08:53:43.969Z,8.87
2018-05-01T08:56:10.984Z,7.07
2018-05-01T08:58:38.783Z,12.70
2018-05-01T09:01:05.834Z,9.23
2018-05-01T09:03:32.854Z,10.03
2018-05-01T09:05:59.891Z,12.90
2018-05-01T09:08:27.699Z,11.60
2018-05-01T09:10:54.749Z,11.03
2018-05-01T09:13:21.798Z,8.67
2018-05-01T09:15:48.822Z,9.50
2018-05-01T09:18:15.906Z,7.80
2018-05-01T09:20:42.928Z,8.93
2018-05-01T09:23:09.954Z,9.63
2018-05-01T09:25:37.764Z,9.73
2018-05-01T09:28:04.807Z,5.70
2018-05-01T09:30:31.837Z,7.97
2018-05-01T09:32:58.887Z,5.77
2018-05-01T09:35:26.683Z,7.30
2018-05-01T09:37:53.702Z,9.03
2018-05-01T09:40:21.516Z,7.03
2018-05-01T09:42:48.543Z,7.60
2018-05-01T09:45:15.547Z,9.43
2018-05-01T09:47:43.340Z,8.43
2018-05-01T09:50:10.361Z,9.63
2018-05-01T09:52:38.671Z,9.53
2018-05-01T09:55:06.224Z,7.83
2018-05-01T09:57:33.737Z,8.27
2018-05-01T10:00:01.731Z,7.60
2018-05-01T10:02:29.283Z,5.90
2018-05-01T10:04:57.590Z,8.20
2018-05-01T10:07:25.099Z,5.50
2018-05-01T10:09:52.623Z,5.77
2018-05-01T10:12:20.174Z,6.97
2018-05-01T10:14:48.450Z,10.70
2018-05-01T10:17:16.005Z,8.53
2018-05-01T10:19:43.517Z,8.80
2018-05-01T10:22:11.067Z,7.07
2018-05-01T10:24:38.594Z,6.67
2018-05-01T10:27:06.831Z,10.30
2018-05-01T10:29:35.895Z,8.10
2018-05-01T10:32:03.444Z,7.27
2018-05-01T10:34:31.016Z,7.83
2018-05-01T10:36:58.532Z,6.83
2018-05-01T10:39:26.061Z,8.87
2018-05-01T10:41:53.561Z,6.33
2018-05-01T10:44:21.848Z,4.43
2018-05-01T10:46:49.380Z,5.17
2018-05-01T10:49:17.736Z,4.87
2018-05-01T10:51:45.263Z,4.30
2018-05-01T10:54:12.782Z,7.73
2018-05-01T10:56:40.294Z,5.57
2018-05-01T10:59:07.813Z,5.50
2018-05-01T11:01:35.347Z,6.20
2018-05-01T11:04:02.958Z,5.40
2018-05-01T11:06:30.470Z,5.83
2018-05-01T11:08:58.079Z,6.93
2018-05-01T11:11:25.593Z,6.17
2018-05-01T11:13:53.104Z,5.63
2018-05-01T11:16:20.634Z,5.83
2018-05-01T11:18:48.936Z,6.63
2018-05-01T11:21:16.469Z,4.13
2018-05-01T11:23:44.766Z,5.67
2018-05-01T11:26:12.323Z,7.53
2018-05-01T11:28:39.836Z,6.60
2018-05-01T11:31:08.345Z,7.53
2018-05-01T11:33:35.884Z,4.23
2018-05-01T11:36:03.397Z,6.07
2018-05-01T11:38:30.937Z,5.70
2018-05-01T11:40:58.460Z,7.33
2018-05-01T11:43:25.992Z,8.90
2018-05-01T11:45:53.591Z,7.60
2018-05-01T11:48:21.108Z,6.03
2018-05-01T11:50:48.648Z,5.67
2018-05-01T11:53:16.173Z,5.87
2018-05-01T11:55:43.703Z,5.37
2018-05-01T11:58:11.223Z,5.43
2018-05-01T12:00:39.505Z,4.87
2018-05-01T12:03:07.838Z,4.63
2018-05-01T12:05:35.364Z,4.50
2018-05-01T12:08:02.942Z,7.47
2018-05-01T12:10:30.481Z,5.70
2018-05-01T12:12:58.014Z,4.83
2018-05-01T12:15:25.515Z,7.20
2018-05-01T12:17:53.023Z,4.27
2018-05-01T12:20:20.594Z,4.20
2018-05-01T12:22:48.131Z,6.53
2018-05-01T12:25:15.649Z,4.60
2018-05-01T12:27:43.781Z,5.20
2018-05-01T12:30:11.273Z,4.33
2018-05-01T12:32:38.835Z,6.10
2018-05-01T12:35:06.386Z,5.50
2018-05-01T12:37:33.914Z,4.53
2018-05-01T12:40:01.439Z,5.10
2018-05-01T12:42:29.001Z,5.87
2018-05-01T12:44:56.510Z,3.37
2018-05-01T12:47:24.020Z,3.93
2018-05-01T12:49:51.547Z,4.20
2018-05-01T12:52:19.915Z,3.50
2018-05-01T12:54:48.191Z,3.93
2018-05-01T12:57:15.729Z,3.77
2018-05-01T12:59:43.245Z,4.10
2018-05-01T13:02:10.806Z,2.77
2018-05-01T13:04:38.405Z,3.03
2018-05-01T13:07:05.919Z,3.13
2018-05-01T13:09:33.464Z,4.00
2018-05-01T13:12:01.770Z,2.77
2018-05-01T13:14:30.044Z,3.37
2018-05-01T13:16:57.597Z,4.17
2018-05-01T13:19:25.131Z,2.33
2018-05-01T13:21:52.664Z,3.97
2018-05-01T13:24:20.175Z,4.17
2018-05-01T13:26:47.723Z,2.30
2018-05-01T13:29:15.993Z,2.13
2018-05-01T13:31:43.529Z,3.90
2018-05-01T13:34:11.807Z,7.40
2018-05-01T13:36:39.309Z,3.93
2018-05-01T13:39:06.826Z,4.60
2018-05-01T13:41:34.411Z,3.37
2018-05-01T13:44:01.995Z,2.30
2018-05-01T13:46:29.535Z,3.13
2018-05-01T13:48:57.999Z,3.43
2018-05-01T13:51:25.488Z,3.07
2018-05-01T13:53:53.748Z,4.80
2018-05-01T13:56:22.089Z,2.07
2018-05-01T13:58:49.635Z,3.87
2018-05-01T14:01:17.145Z,3.60
2018-05-01T14:03:44.694Z,3.17
2018-05-01T14:06:12.208Z,3.87
2018-05-01T14:08:39.706Z,4.10
2018-05-01T14:11:07.312Z,4.43
2018-05-01T14:13:34.762Z,4.03
2018-05-01T14:16:03.039Z,3.70
2018-05-01T14:18:30.603Z,3.93
2018-05-01T14:20:58.127Z,3.43
2018-05-01T14:23:25.626Z,5.20
2018-05-01T14:25:53.999Z,4.87
2018-05-01T14:28:21.541Z,4.63
2018-05-01T14:30:49.849Z,5.17
2018-05-01T14:33:17.405Z,4.97
2018-05-01T14:35:45.707Z,2.90
2018-05-01T14:38:13.230Z,3.23
2018-05-01T14:40:41.547Z,3.90
2018-05-01T14:43:09.069Z,4.00
2018-05-01T14:45:42.520Z,4.40
2018-05-01T14:48:12.907Z,3.83
2018-05-01T14:50:55.880Z,7.37
2018-05-01T14:53:42.013Z,5.20
2018-05-01T14:56:19.447Z,4.23
2018-05-01T14:58:49.897Z,3.97
2018-05-01T15:01:18.563Z,3.60
2018-05-01T15:03:46.478Z,3.93
2018-05-01T15:06:13.975Z,4.07
2018-05-01T15:08:41.513Z,3.53
2018-05-01T15:11:09.841Z,4.67
2018-05-01T15:13:37.362Z,2.33
2018-05-01T15:16:04.934Z,4.20
2018-05-01T15:18:32.456Z,4.30
2018-05-01T15:21:00.007Z,3.47
2018-05-01T15:23:27.575Z,4.00
2018-05-01T15:25:55.090Z,4.80
2018-05-01T15:28:22.622Z,3.63
2018-05-01T15:30:50.920Z,4.77
2018-05-01T15:33:18.473Z,3.20
2018-05-01T15:35:46.920Z,2.90
2018-05-01T15:38:14.434Z,6.27
2018-05-01T15:40:50.570Z,4.10
2018-05-01T15:43:19.179Z,4.97
2018-05-01T15:45:47.655Z,3.00
2018-05-01T15:48:16.308Z,3.73
2018-05-01T15:50:43.851Z,8.10
2018-05-01T15:53:11.355Z,3.40
2018-05-01T15:55:38.934Z,3.23
2018-05-01T15:58:06.521Z,3.40
2018-05-01T16:00:34.100Z,3.93
2018-05-01T16:03:01.658Z,3.33
2018-05-01T16:05:29.173Z,4.87
2018-05-01T16:07:56.707Z,3.93
2018-05-01T16:10:25.014Z,4.60
2018-05-01T16:12:52.514Z,3.53
2018-05-01T16:15:20.043Z,2.67
2018-05-01T16:17:47.582Z,3.40
2018-05-01T16:20:15.134Z,5.53
2018-05-01T16:22:42.643Z,4.77
2018-05-01T16:25:10.176Z,3.70
2018-05-01T16:27:37.691Z,3.43
2018-05-01T16:30:05.974Z,5.33
2018-05-01T16:32:33.558Z,4.60
2018-05-01T16:35:01.078Z,3.67
2018-05-01T16:37:28.614Z,5.10
2018-05-01T16:39:56.180Z,3.63
2018-05-01T16:42:24.557Z,3.53
2018-05-01T16:44:52.091Z,4.43
2018-05-01T16:47:19.599Z,4.43
2018-05-01T16:49:47.099Z,3.80
2018-05-01T16:52:14.677Z,3.77
2018-05-01T16:54:42.182Z,3.53
2018-05-01T16:57:10.299Z,4.67
2018-05-01T16:59:37.817Z,4.87
2018-05-01T17:02:05.330Z,3.47
2018-05-01T17:04:32.837Z,5.67
2018-05-01T17:07:00.398Z,3.90
2018-05-01T17:09:27.912Z,5.30
2018-05-01T17:11:55.418Z,3.57
2018-05-01T17:14:22.945Z,3.97
2018-05-01T17:16:50.473Z,6.40
2018-05-01T17:19:18.018Z,4.77
2018-05-01T17:21:45.679Z,3.93
2018-05-01T17:24:13.970Z,4.17
2018-05-01T17:26:42.245Z,5.70
2018-05-01T17:29:10.961Z,3.70
2018-05-01T17:31:38.479Z,4.30
2018-05-01T17:34:06.046Z,3.53
2018-05-01T17:36:34.646Z,3.87
2018-05-01T17:39:02.931Z,4.80
2018-05-01T17:41:30.556Z,2.55
2018-05-01T17:43:58.115Z,9.87
2018-05-01T17:46:25.629Z,5.17
2018-05-01T17:48:53.167Z,4.57
2018-05-01T17:51:20.689Z,5.00
2018-05-01T17:53:48.242Z,3.83
2018-05-01T17:56:15.772Z,4.33
2018-05-01T17:58:43.311Z,4.67
2018-05-01T18:01:10.870Z,3.93
2018-05-01T18:03:39.148Z,3.57
2018-05-01T18:06:06.688Z,5.03
2018-05-01T18:08:34.606Z,4.43
2018-05-01T18:11:02.172Z,3.73
2018-05-01T18:13:29.808Z,5.47
2018-05-01T18:15:57.354Z,5.40
2018-05-01T18:18:24.877Z,5.70
2018-05-01T18:20:52.426Z,5.23
2018-05-01T18:23:20.719Z,4.60
2018-05-01T18:25:48.181Z,4.83
2018-05-01T18:28:15.991Z,4.27
2018-05-01T18:30:43.572Z,4.27
2018-05-01T18:33:11.042Z,3.50
2018-05-01T18:35:38.601Z,6.73
2018-05-01T18:38:06.119Z,4.60
2018-05-01T18:40:34.389Z,4.43
2018-05-01T18:43:01.999Z,5.67
2018-05-01T18:45:29.552Z,5.63
2018-05-01T18:47:57.076Z,6.10
2018-05-01T18:52:58.370Z,4.47
2018-05-01T18:55:25.906Z,4.80
2018-05-01T18:57:53.495Z,4.40
2018-05-01T19:00:21.014Z,5.63
2018-05-01T19:02:49.327Z,4.43
2018-05-01T19:05:16.838Z,5.07
2018-05-01T19:07:44.349Z,3.23
2018-05-01T19:10:11.869Z,7.67
2018-05-01T19:12:39.381Z,5.23
2018-05-01T19:15:06.907Z,7.40
2018-05-01T19:17:35.201Z,5.80
2018-05-01T19:20:02.882Z,5.10
2018-05-01T19:22:31.082Z,4.60
2018-05-01T19:24:58.646Z,5.30
2018-05-01T19:27:26.148Z,4.47
2018-05-01T19:29:53.711Z,5.93
2018-05-01T19:32:21.234Z,5.73
2018-05-01T19:34:48.739Z,8.23
2018-05-01T19:37:17.057Z,7.37
2018-05-01T19:39:44.882Z,6.53
2018-05-01T19:42:13.835Z,5.73
2018-05-01T19:44:42.208Z,5.47
2018-05-01T19:47:09.711Z,6.53
2018-05-01T19:49:38.003Z,7.23
2018-05-01T19:52:05.556Z,6.20
2018-05-01T19:54:33.820Z,6.57
2018-05-01T19:57:01.339Z,5.67
2018-05-01T19:59:28.869Z,4.30
2018-05-01T20:01:56.429Z,6.00
2018-05-01T20:04:23.947Z,4.97
2018-05-01T20:06:51.492Z,6.47
2018-05-01T20:09:19.592Z,5.40
2018-05-01T20:11:47.135Z,5.90
2018-05-01T20:14:14.691Z,4.23
2018-05-01T20:16:42.203Z,7.67
2018-05-01T20:19:10.050Z,3.77
2018-05-01T20:21:38.368Z,5.23
2018-05-01T20:24:05.909Z,5.77
2018-05-01T20:26:33.439Z,5.23
2018-05-01T20:29:02.435Z,5.83
2018-05-01T20:31:29.947Z,4.63
2018-05-01T20:33:57.536Z,6.40
2018-05-01T20:36:25.110Z,5.97
2018-05-01T20:38:52.634Z,5.33
2018-05-01T20:41:20.151Z,3.87
2018-05-01T20:43:47.698Z,5.63
2018-05-01T20:46:16.436Z,4.10
2018-05-01T20:48:45.699Z,4.47
2018-05-01T20:51:14.008Z,5.00
2018-05-01T20:53:41.532Z,5.50
2018-05-01T20:56:09.999Z,5.07
2018-05-01T20:58:37.632Z,6.20
2018-05-01T21:01:05.151Z,5.13
2018-05-01T21:03:33.426Z,4.23
2018-05-01T21:06:01.030Z,7.77
2018-05-01T21:08:28.559Z,6.90
2018-05-01T21:10:56.111Z,6.20
2018-05-01T21:13:23.657Z,5.63
2018-05-01T21:15:51.931Z,7.17
2018-05-01T21:18:19.441Z,4.30
2018-05-01T21:20:46.962Z,5.30
2018-05-01T21:23:15.251Z,4.67
2018-05-01T21:25:42.781Z,5.27
2018-05-01T21:28:10.366Z,7.17
2018-05-01T21:30:37.924Z,5.70
2018-05-01T21:33:05.453Z,5.93
2018-05-01T21:35:33.036Z,5.17
2018-05-01T21:38:01.319Z,7.43
2018-05-01T21:40:29.607Z,7.63
2018-05-01T21:42:57.206Z,5.87
2018-05-01T21:45:25.507Z,6.37
2018-05-01T21:47:53.011Z,6.27
2018-05-01T21:50:21.307Z,7.43
2018-05-01T21:52:48.809Z,5.17
2018-05-01T21:55:16.403Z,6.03
2018-05-01T21:57:43.986Z,8.73
2018-05-01T22:00:11.496Z,4.73
2018-05-01T22:02:39.025Z,5.03
2018-05-01T22:05:06.545Z,7.50
2018-05-01T22:07:34.054Z,6.47
2018-05-01T22:10:02.137Z,5.60
2018-05-01T22:12:29.669Z,6.13
2018-05-01T22:14:57.171Z,5.63
2018-05-01T22:17:24.785Z,5.73
2018-05-01T22:19:52.307Z,5.73
2018-05-01T22:22:19.898Z,6.67
2018-05-01T22:24:47.475Z,6.93
2018-05-01T22:27:14.988Z,6.13
2018-05-01T22:29:42.514Z,8.23
2018-05-01T22:32:10.029Z,8.10
2018-05-01T22:34:38.298Z,7.07
2018-05-01T22:37:05.900Z,8.27
2018-05-01T22:39:33.393Z,7.13
2018-05-01T22:42:00.891Z,6.57
2018-05-01T22:44:28.454Z,7.77
2018-05-01T22:46:55.980Z,6.83
2018-05-01T22:49:23.489Z,6.60
2018-05-01T22:51:51.019Z,8.67
2018-05-01T22:54:19.305Z,8.07
2018-05-01T22:56:47.566Z,5.87
2018-05-01T22:59:15.113Z,6.00
2018-05-01T23:01:42.621Z,7.87
2018-05-01T23:04:10.130Z,8.47
2018-05-01T23:06:37.655Z,6.83
2018-05-01T23:09:05.172Z,7.17
2018-05-01T23:11:32.680Z,8.57
2018-05-01T23:14:00.231Z,6.40
2018-05-01T23:16:27.726Z,6.77
2018-05-01T23:18:55.236Z,7.40
2018-05-01T23:21:22.765Z,6.77
2018-05-01T23:23:51.043Z,7.90
2018-05-01T23:26:18.598Z,7.37
2018-05-01T23:28:46.118Z,7.37
2018-05-01T23:31:13.711Z,8.73
2018-05-01T23:33:41.255Z,8.43
2018-05-01T23:36:08.794Z,6.60
2018-05-01T23:38:36.406Z,8.27
2018-05-01T23:41:03.905Z,8.60
2018-05-01T23:43:31.420Z,6.50
2018-05-01T23:45:58.959Z,6.87
2018-05-01T23:48:26.515Z,7.70
2018-05-01T23:50:54.015Z,6.30
2018-05-01T23:53:22.306Z,8.00
2018-05-01T23:55:50.615Z,8.57
2018-05-01T23:58:18.158Z,9.53
